Accueil
METAR-TAF:

METAR-TAF

Aéroports :

Aérodrome de Granges

Granges, Suisse

latitude: 47-10-53N, longitude: 007-24-59E, altitude: 430 m

Observation

Le bulletin a été fait il y a 22 minutes, à 16:20 UTC
Vent 5 kt de nord-est
Température 1°C
Humidité 80%
Pression 1017 hPa
Visibilité: 9000 m

METAR: LSZG 211620Z 04005KT 9000 NSC 01/M02 Q1017 NOSIG

Heure: 17:42 (16:42 UTC)

Prévision

Le bulletin a été fait il y a 2 heures et 17 minutes, à 14:25 UTC
Prévision valable du 21 à 15 UTC au 21 à 24 UTC
Vent 6 kt de est/nord-est
Visibilité: 7000 m
Probabilité 30% :
Temporairement
du 21 à 15 UTC au 21 à 19 UTC
Visibilité 10 km ou plus
pas de nuages en-dessous de 1500 mètres et pas de cumulonimbus.
Evoluant progressivement
du 21 à 18 UTC au 21 à 22 UTC
Visibilité: 4000 m
Nuages fragmentés à une hauteur de 1400 ft
brume

TAF: LSZG 211425Z 2115/2124 06006KT 7000 NSC PROB30 TEMPO 2115/2119 CAVOK BECMG 2118/2122 4000 BR BKN014

Observations et prévisions météorologiques de plus de 4000 aéroports (messages METAR et TAF).

Les stations disponibles sont représentées par des disques jaunes et rouges sur la carte.

Passer la souris dessus pour voir le nom de la station.

Cliquer dessus pour voir les observations et prévisions météorologiques.

Pour changer de carte: cliquez sur les boutons verts avec une croix noire pour zoomer, sur le bouton vert avec un tiret pour effectuer un zoom arrière, ou sur les flèches vertes pour les cartes adjacentes.


METAR-TAF: